createdAt,value
2022-08-05T00:01:30.089Z,12.63
2022-08-05T00:04:03.801Z,12.33
2022-08-05T00:06:33.155Z,12.77
2022-08-05T00:09:03.206Z,12.20
2022-08-05T00:11:34.599Z,13.10
2022-08-05T00:14:12.783Z,13.57
2022-08-05T00:16:52.650Z,13.87
2022-08-05T00:19:22.219Z,12.57
2022-08-05T00:21:49.361Z,13.43
2022-08-05T00:24:16.355Z,10.40
2022-08-05T00:26:50.809Z,12.50
2022-08-05T00:29:19.060Z,10.67
2022-08-05T00:32:10.543Z,14.40
2022-08-05T00:34:56.127Z,11.23
2022-08-05T00:37:35.901Z,13.70
2022-08-05T00:40:17.983Z,12.17
2022-08-05T00:42:55.829Z,12.03
2022-08-05T00:45:28.051Z,14.90
2022-08-05T00:48:09.430Z,14.33
2022-08-05T00:50:37.400Z,12.37
2022-08-05T00:53:09.556Z,14.70
2022-08-05T00:55:51.116Z,11.00
2022-08-05T00:58:19.190Z,12.77
2022-08-05T01:00:47.133Z,13.63
2022-08-05T01:03:22.506Z,11.23
2022-08-05T01:05:49.956Z,11.80
2022-08-05T01:08:30.392Z,14.10
2022-08-05T01:11:13.489Z,11.50
2022-08-05T01:13:58.511Z,10.67
2022-08-05T01:16:40.598Z,13.97
2022-08-05T01:19:36.821Z,16.60
2022-08-05T01:22:18.856Z,11.83
2022-08-05T01:24:50.715Z,19.63
2022-08-05T01:27:50.687Z,10.40
2022-08-05T01:30:34.248Z,15.50
2022-08-05T01:33:06.115Z,11.13
2022-08-05T01:35:51.342Z,14.33
2022-08-05T01:38:26.871Z,12.50
2022-08-05T01:40:58.701Z,12.67
2022-08-05T01:43:28.096Z,11.43
2022-08-05T01:45:57.079Z,12.57
2022-08-05T01:48:26.936Z,12.47
2022-08-05T01:50:56.557Z,12.37
2022-08-05T01:53:58.334Z,9.87
2022-08-05T01:58:09.945Z,12.57
2022-08-05T01:59:04.748Z,14.00
2022-08-05T02:01:40.199Z,12.80
2022-08-05T02:04:10.300Z,10.93
2022-08-05T02:06:38.950Z,12.47
2022-08-05T02:09:07.182Z,11.73
2022-08-05T02:12:28.798Z,14.60
2022-08-05T02:15:12.482Z,14.00
2022-08-05T02:18:31.379Z,16.13
2022-08-05T02:20:43.023Z,15.87
2022-08-05T02:23:14.900Z,13.97
2022-08-05T02:25:49.469Z,18.03
2022-08-05T02:28:29.202Z,18.10
2022-08-05T02:31:05.848Z,13.47
2022-08-05T02:33:40.834Z,13.60
2022-08-05T02:36:13.647Z,16.53
2022-08-05T02:38:53.089Z,15.53
2022-08-05T02:41:22.788Z,14.10
2022-08-05T02:44:06.539Z,15.73
2022-08-05T02:46:53.286Z,15.10
2022-08-05T02:49:36.503Z,16.70
2022-08-05T02:52:06.961Z,15.33
2022-08-05T02:54:36.981Z,15.60
2022-08-05T02:57:10.054Z,18.17
2022-08-05T02:59:55.175Z,14.30
2022-08-05T03:02:27.783Z,16.90
2022-08-05T03:04:55.391Z,14.73
2022-08-05T03:07:59.147Z,14.13
2022-08-05T03:10:10.531Z,14.17
2022-08-05T03:12:40.069Z,16.40
2022-08-05T03:15:10.185Z,23.10
2022-08-05T03:17:40.714Z,14.57
2022-08-05T03:20:09.174Z,16.00
2022-08-05T03:22:36.780Z,16.27
2022-08-05T03:25:11.645Z,17.67
2022-08-05T03:27:59.340Z,18.10
2022-08-05T03:30:34.214Z,19.30
2022-08-05T03:33:06.119Z,17.20
2022-08-05T03:35:41.121Z,18.20
2022-08-05T03:38:11.557Z,17.60
2022-08-05T03:40:47.467Z,20.73
2022-08-05T03:44:08.699Z,18.80
2022-08-05T03:46:03.389Z,21.73
2022-08-05T03:48:30.683Z,20.40
2022-08-05T03:52:38.329Z,18.37
2022-08-05T03:55:53.957Z,17.83
2022-08-05T03:57:41.161Z,19.70
2022-08-05T04:00:15.605Z,21.57
2022-08-05T04:02:57.807Z,18.03
2022-08-05T04:05:33.254Z,18.17
2022-08-05T04:08:05.676Z,18.23
2022-08-05T04:10:43.765Z,19.57
2022-08-05T04:13:11.824Z,21.40
2022-08-05T04:15:38.820Z,20.10
2022-08-05T04:18:25.541Z,22.93
2022-08-05T04:20:56.684Z,18.10
2022-08-05T04:23:57.182Z,17.57
2022-08-05T04:26:14.629Z,17.60
2022-08-05T04:28:51.142Z,17.37
2022-08-05T04:31:18.961Z,17.93
2022-08-05T04:34:19.158Z,20.33
2022-08-05T04:36:46.304Z,21.00
2022-08-05T04:39:16.704Z,16.83
2022-08-05T04:41:43.235Z,17.37
2022-08-05T04:44:12.090Z,19.80
2022-08-05T04:46:38.689Z,19.83
2022-08-05T04:49:12.312Z,21.43
2022-08-05T04:51:43.398Z,21.70
2022-08-05T04:54:10.202Z,19.67
2022-08-05T04:56:38.581Z,22.67
2022-08-05T04:59:22.021Z,20.30
2022-08-05T05:02:07.135Z,23.30
2022-08-05T05:04:35.007Z,21.13
2022-08-05T05:07:04.796Z,21.53
2022-08-05T05:09:37.456Z,21.07
2022-08-05T05:12:05.205Z,28.07
2022-08-05T05:14:33.017Z,23.57
2022-08-05T05:17:03.389Z,22.93
2022-08-05T05:19:37.140Z,23.10
2022-08-05T05:22:24.283Z,25.17
2022-08-05T05:24:59.878Z,24.40
2022-08-05T05:27:44.713Z,24.50
2022-08-05T05:30:30.954Z,24.07
2022-08-05T05:33:09.432Z,32.47
2022-08-05T05:35:47.350Z,23.93
2022-08-05T05:38:14.453Z,25.00
2022-08-05T05:40:49.954Z,25.07
2022-08-05T05:43:27.838Z,30.90
2022-08-05T05:46:08.491Z,25.53
2022-08-05T05:48:41.803Z,32.13
2022-08-05T05:51:15.587Z,31.17
2022-08-05T05:53:54.010Z,33.80
2022-08-05T05:56:26.218Z,32.27
2022-08-05T05:59:03.494Z,33.60
2022-08-05T06:01:37.877Z,37.30
2022-08-05T06:04:11.930Z,37.07
2022-08-05T06:06:47.360Z,36.13
2022-08-05T06:09:16.961Z,30.07
2022-08-05T06:12:01.976Z,34.10
2022-08-05T06:14:30.800Z,31.50
2022-08-05T06:16:57.939Z,35.53
2022-08-05T06:19:34.038Z,32.57
2022-08-05T06:22:02.187Z,31.57
2022-08-05T06:24:28.644Z,30.13
2022-08-05T06:26:55.657Z,27.20
2022-08-05T06:29:25.063Z,26.33
2022-08-05T06:32:25.360Z,31.43
2022-08-05T06:34:56.339Z,41.73
2022-08-05T06:37:56.610Z,32.43
2022-08-05T06:40:11.260Z,36.07
2022-08-05T06:42:39.679Z,37.93
2022-08-05T06:45:08.722Z,36.57
2022-08-05T06:48:11.406Z,39.77
2022-08-05T06:50:22.318Z,39.47
2022-08-05T06:53:03.610Z,44.20
2022-08-05T06:55:36.487Z,44.67
2022-08-05T06:58:29.606Z,51.00
2022-08-05T07:00:50.805Z,48.67
2022-08-05T07:03:19.074Z,54.37
2022-08-05T07:05:46.437Z,52.70
2022-08-05T07:08:13.364Z,52.70
2022-08-05T07:10:52.384Z,47.57
2022-08-05T07:13:58.570Z,48.80
2022-08-05T07:17:56.300Z,39.40
2022-08-05T07:20:10.551Z,39.00
2022-08-05T07:22:15.926Z,28.47
2022-08-05T07:24:44.024Z,28.17
2022-08-05T07:27:19.287Z,28.50
2022-08-05T07:30:24.044Z,32.90
2022-08-05T07:32:38.104Z,30.30
2022-08-05T07:35:55.674Z,29.37
2022-08-05T07:37:58.934Z,28.77
2022-08-05T07:40:26.907Z,30.30
2022-08-05T07:42:58.668Z,35.70
2022-08-05T07:45:56.334Z,31.40
2022-08-05T07:48:12.639Z,31.23
2022-08-05T07:50:39.970Z,67.13
2022-08-05T07:53:09.113Z,43.63
2022-08-05T07:55:44.215Z,41.37
2022-08-05T07:58:57.838Z,48.43
2022-08-05T08:01:13.192Z,52.77
2022-08-05T08:03:44.572Z,45.50
2022-08-05T08:06:11.571Z,49.23
2022-08-05T08:08:38.147Z,40.67
2022-08-05T08:11:04.845Z,36.67
2022-08-05T08:13:42.803Z,32.43
2022-08-05T08:16:49.781Z,30.40
2022-08-05T08:19:02.504Z,23.77
2022-08-05T08:21:29.304Z,25.70
2022-08-05T08:24:03.356Z,25.87
2022-08-05T08:26:31.785Z,21.10
2022-08-05T08:29:02.334Z,24.57
2022-08-05T08:31:48.603Z,22.53
2022-08-05T08:34:15.861Z,18.70
2022-08-05T08:36:48.949Z,20.03
2022-08-05T08:39:19.858Z,16.97
2022-08-05T08:41:52.049Z,23.30
2022-08-05T08:45:21.319Z,17.07
2022-08-05T08:47:46.970Z,21.13
2022-08-05T08:50:30.397Z,19.80
2022-08-05T08:53:00.930Z,19.37
2022-08-05T08:56:01.652Z,19.90
2022-08-05T08:58:17.065Z,17.73
2022-08-05T09:00:44.528Z,17.67
2022-08-05T09:03:11.735Z,24.43
2022-08-05T09:06:08.935Z,19.13
2022-08-05T09:08:30.380Z,18.00
2022-08-05T09:10:57.945Z,17.33
2022-08-05T09:13:24.648Z,21.50
2022-08-05T09:15:58.164Z,23.97
2022-08-05T09:18:25.631Z,23.07
2022-08-05T09:20:52.083Z,17.67
2022-08-05T09:23:21.683Z,16.07
2022-08-05T09:26:02.926Z,20.43
2022-08-05T09:28:33.435Z,20.03
2022-08-05T09:31:23.417Z,23.63
2022-08-05T09:33:58.788Z,14.40
2022-08-05T09:36:54.053Z,14.87
2022-08-05T09:39:41.249Z,16.27
2022-08-05T09:42:17.506Z,15.93
2022-08-05T09:44:51.727Z,17.77
2022-08-05T09:47:22.414Z,18.13
2022-08-05T09:50:00.586Z,13.77
2022-08-05T09:52:34.503Z,14.80
2022-08-05T09:55:06.283Z,20.67
2022-08-05T09:57:54.529Z,14.13
2022-08-05T10:00:25.849Z,16.93
2022-08-05T10:02:58.455Z,13.93
2022-08-05T10:05:28.771Z,12.50
2022-08-05T10:08:36.791Z,16.67
2022-08-05T10:10:50.369Z,20.13
2022-08-05T10:13:46.273Z,13.53
2022-08-05T10:16:37.562Z,17.73
2022-08-05T10:19:09.323Z,19.90
2022-08-05T10:21:40.277Z,18.70
2022-08-05T10:24:10.925Z,14.33
2022-08-05T10:26:37.924Z,15.00
2022-08-05T10:29:24.129Z,16.67
2022-08-05T10:32:55.537Z,18.23
2022-08-05T10:34:51.785Z,18.87
2022-08-05T10:37:18.719Z,17.93
2022-08-05T10:39:59.195Z,16.07
2022-08-05T10:42:38.434Z,18.63
2022-08-05T10:45:23.861Z,16.07
2022-08-05T10:48:35.286Z,15.10
2022-08-05T10:51:21.861Z,14.77
2022-08-05T10:53:58.580Z,15.20
2022-08-05T10:56:30.819Z,13.87
2022-08-05T10:59:06.983Z,12.63
2022-08-05T11:01:54.647Z,15.60
2022-08-05T11:04:30.851Z,15.47
2022-08-05T11:06:57.994Z,16.00
2022-08-05T11:09:39.123Z,14.33
2022-08-05T11:12:24.751Z,14.47
2022-08-05T11:15:19.262Z,13.33
2022-08-05T11:17:57.922Z,14.97
2022-08-05T11:20:43.864Z,12.77
2022-08-05T11:23:33.600Z,13.37
2022-08-05T11:26:28.927Z,12.27
2022-08-05T11:29:05.164Z,12.00
2022-08-05T11:31:57.972Z,16.50
2022-08-05T11:34:51.689Z,15.13
2022-08-05T11:38:29.278Z,11.77
2022-08-05T11:41:35.529Z,12.93
2022-08-05T11:44:04.479Z,11.30
2022-08-05T11:46:37.590Z,12.17
2022-08-05T11:49:06.054Z,10.43
2022-08-05T11:51:43.528Z,14.83
2022-08-05T11:54:34.034Z,11.87
2022-08-05T11:57:08.498Z,10.93
2022-08-05T11:59:50.746Z,13.67
2022-08-05T12:02:30.457Z,11.13
2022-08-05T12:05:00.464Z,11.90
2022-08-05T12:08:07.813Z,13.37
2022-08-05T12:10:24.778Z,12.03
2022-08-05T12:13:16.388Z,16.37
2022-08-05T12:15:49.910Z,11.47
2022-08-05T12:18:32.832Z,13.03
2022-08-05T12:21:18.531Z,12.63
2022-08-05T12:23:53.585Z,11.60
2022-08-05T12:26:20.451Z,14.10
2022-08-05T12:28:49.721Z,10.97
2022-08-05T12:31:23.135Z,14.20
2022-08-05T12:33:59.307Z,11.63
2022-08-05T12:36:28.438Z,10.97
2022-08-05T12:38:56.801Z,14.80
2022-08-05T12:41:23.992Z,14.23
2022-08-05T12:44:11.619Z,11.80
2022-08-05T12:46:45.589Z,11.10
2022-08-05T12:49:14.882Z,10.87
2022-08-05T12:52:12.629Z,10.67
2022-08-05T12:54:36.027Z,9.63
2022-08-05T12:57:09.318Z,10.43
2022-08-05T13:02:03.767Z,13.00
2022-08-05T13:02:40.182Z,11.23
2022-08-05T13:05:08.348Z,13.30
2022-08-05T13:07:59.346Z,10.70
2022-08-05T13:10:27.061Z,11.23
2022-08-05T13:12:58.490Z,12.70
2022-08-05T13:15:41.274Z,13.07
2022-08-05T13:18:19.565Z,11.77
2022-08-05T13:20:49.181Z,10.77
2022-08-05T13:23:22.168Z,11.33
2022-08-05T13:25:52.503Z,10.80
2022-08-05T13:28:25.750Z,11.90
2022-08-05T13:30:53.259Z,14.47
2022-08-05T13:34:22.074Z,13.07
2022-08-05T13:36:11.239Z,14.97
2022-08-05T13:38:42.763Z,12.93
2022-08-05T13:41:10.872Z,16.63
2022-08-05T13:43:44.130Z,12.70
2022-08-05T13:46:12.701Z,14.60
2022-08-05T13:48:58.323Z,11.50
2022-08-05T13:51:29.546Z,12.40
2022-08-05T13:54:03.265Z,14.60
2022-08-05T13:56:38.673Z,14.57
2022-08-05T13:59:19.714Z,14.40
2022-08-05T14:01:57.426Z,11.33
2022-08-05T14:04:50.036Z,15.63
2022-08-05T14:07:25.764Z,12.40
2022-08-05T14:10:18.790Z,10.63
2022-08-05T14:12:48.694Z,13.57
2022-08-05T14:16:07.597Z,8.90
2022-08-05T14:18:03.002Z,10.07
2022-08-05T14:20:31.371Z,10.53
2022-08-05T14:22:59.372Z,10.50
2022-08-05T14:25:28.186Z,12.93
2022-08-05T14:27:58.522Z,10.80
2022-08-05T14:30:26.568Z,14.47
2022-08-05T14:32:54.426Z,22.73
2022-08-05T14:35:23.432Z,17.57
2022-08-05T14:38:04.188Z,8.37
2022-08-05T14:40:30.830Z,13.50
2022-08-05T14:42:57.306Z,12.53
2022-08-05T14:45:24.779Z,11.83
2022-08-05T14:48:05.367Z,10.23
2022-08-05T14:50:39.863Z,14.47
2022-08-05T14:53:07.483Z,11.07
2022-08-05T14:55:39.306Z,16.03
2022-08-05T14:58:12.012Z,11.03
2022-08-05T15:00:58.227Z,13.90
2022-08-05T15:03:33.896Z,10.10
2022-08-05T15:06:08.126Z,15.70
2022-08-05T15:09:01.600Z,11.63
2022-08-05T15:11:51.351Z,15.03
2022-08-05T15:14:33.482Z,9.40
2022-08-05T15:17:04.023Z,10.27
2022-08-05T15:19:32.050Z,13.30
2022-08-05T15:22:01.022Z,9.43
2022-08-05T15:24:28.614Z,10.10
2022-08-05T15:26:55.980Z,9.07
2022-08-05T15:29:24.074Z,13.10
2022-08-05T15:32:02.314Z,11.17
2022-08-05T15:34:32.932Z,10.53
2022-08-05T15:37:06.275Z,8.90
2022-08-05T15:41:00.432Z,8.90
2022-08-05T15:42:49.995Z,9.33
2022-08-05T15:45:07.384Z,12.97
2022-08-05T15:47:36.378Z,8.47
2022-08-05T15:50:03.878Z,11.57
2022-08-05T15:52:52.709Z,11.00
2022-08-05T15:55:19.884Z,8.57
2022-08-05T15:57:52.112Z,8.63
2022-08-05T16:00:26.358Z,9.07
2022-08-05T16:03:05.803Z,13.70
2022-08-05T16:05:32.357Z,11.53
2022-08-05T16:07:58.904Z,9.67
2022-08-05T16:10:27.076Z,8.70
2022-08-05T16:12:56.015Z,8.47
2022-08-05T16:15:23.471Z,17.50
2022-08-05T16:17:57.691Z,17.97
2022-08-05T16:20:25.253Z,8.77
2022-08-05T16:22:51.714Z,7.73
2022-08-05T16:25:18.296Z,9.20
2022-08-05T16:28:01.085Z,9.67
2022-08-05T16:30:32.212Z,11.70
2022-08-05T16:33:00.001Z,9.57
2022-08-05T16:35:28.471Z,8.57
2022-08-05T16:38:02.383Z,9.20
2022-08-05T16:40:51.668Z,7.30
2022-08-05T16:43:23.900Z,7.90
2022-08-05T16:46:03.519Z,11.40
2022-08-05T16:48:36.008Z,8.07
2022-08-05T16:51:09.451Z,9.00
2022-08-05T16:54:03.224Z,7.20
2022-08-05T16:56:29.952Z,12.30
2022-08-05T16:58:57.600Z,8.00
2022-08-05T17:01:24.522Z,9.40
2022-08-05T17:03:51.838Z,12.00
2022-08-05T17:06:18.611Z,8.63
2022-08-05T17:08:53.561Z,9.17
2022-08-05T17:11:25.001Z,8.60
2022-08-05T17:14:00.516Z,10.83
2022-08-05T17:16:36.602Z,8.20
2022-08-05T17:19:09.653Z,8.20
2022-08-05T17:21:39.561Z,8.10
2022-08-05T17:24:19.534Z,8.57
2022-08-05T17:26:55.793Z,10.43
2022-08-05T17:29:33.485Z,13.50
2022-08-05T17:32:08.467Z,8.63
2022-08-05T17:34:38.036Z,8.40
2022-08-05T17:37:04.799Z,8.10
2022-08-05T17:39:55.243Z,6.90
2022-08-05T17:42:27.004Z,9.87
2022-08-05T17:44:56.513Z,8.13
2022-08-05T17:47:23.751Z,10.17
2022-08-05T17:50:03.586Z,8.20
2022-08-05T17:52:53.281Z,13.23
2022-08-05T17:55:22.480Z,7.47
2022-08-05T17:57:54.290Z,9.87
2022-08-05T18:00:20.918Z,7.53
2022-08-05T18:02:55.040Z,7.90
2022-08-05T18:05:22.049Z,7.77
2022-08-05T18:07:48.700Z,13.70
2022-08-05T18:10:20.847Z,7.23
2022-08-05T18:12:49.300Z,7.80
2022-08-05T18:15:15.876Z,9.60
2022-08-05T18:17:59.162Z,7.80
2022-08-05T18:20:32.004Z,6.80
2022-08-05T18:23:09.456Z,7.20
2022-08-05T18:25:45.403Z,8.90
2022-08-05T18:28:16.080Z,8.00
2022-08-05T18:30:51.259Z,14.60
2022-08-05T18:33:22.687Z,8.40
2022-08-05T18:36:04.936Z,7.37
2022-08-05T18:38:36.682Z,9.00
2022-08-05T18:41:55.808Z,10.03
2022-08-05T18:43:54.038Z,9.37
2022-08-05T18:46:20.816Z,11.20
2022-08-05T18:48:53.567Z,10.60
2022-08-05T18:52:06.151Z,9.30
2022-08-05T18:54:31.319Z,9.10
2022-08-05T18:57:01.341Z,12.40
2022-08-05T18:59:42.694Z,7.77
2022-08-05T19:02:38.125Z,9.40
2022-08-05T19:06:12.347Z,7.73
2022-08-05T19:07:52.554Z,8.03
2022-08-05T19:10:28.101Z,9.83
2022-08-05T19:12:58.711Z,11.83
2022-08-05T19:15:59.271Z,8.40
2022-08-05T19:18:21.959Z,6.87
2022-08-05T19:20:52.036Z,7.40
2022-08-05T19:24:03.271Z,10.10
2022-08-05T19:26:05.608Z,8.47
2022-08-05T19:28:41.809Z,9.10
2022-08-05T19:31:13.474Z,8.10
2022-08-05T19:33:48.598Z,8.43
2022-08-05T19:36:27.190Z,8.90
2022-08-05T19:39:00.975Z,8.50
2022-08-05T19:41:58.149Z,7.93
2022-08-05T19:44:15.017Z,8.03
2022-08-05T19:46:43.776Z,7.30
2022-08-05T19:49:16.412Z,11.53
2022-08-05T19:52:06.037Z,10.77
2022-08-05T19:54:32.858Z,9.87
2022-08-05T19:57:09.774Z,9.60
2022-08-05T19:59:59.564Z,11.83
2022-08-05T20:02:30.339Z,11.90
2022-08-05T20:04:59.302Z,24.23
2022-08-05T20:07:45.775Z,13.40
2022-08-05T20:10:16.387Z,8.90
2022-08-05T20:12:46.137Z,7.30
2022-08-05T20:15:48.231Z,9.00
2022-08-05T20:18:04.345Z,8.27
2022-08-05T20:20:37.961Z,8.33
2022-08-05T20:23:05.352Z,9.13
2022-08-05T20:25:33.662Z,8.97
2022-08-05T20:28:08.190Z,9.37
2022-08-05T20:30:40.668Z,7.17
2022-08-05T20:33:08.713Z,12.97
2022-08-05T20:35:40.469Z,11.93
2022-08-05T20:38:11.974Z,10.07
2022-08-05T20:40:50.464Z,9.33
2022-08-05T20:43:17.503Z,8.60
2022-08-05T20:46:04.111Z,8.00
2022-08-05T20:48:30.663Z,8.83
2022-08-05T20:50:57.151Z,10.67
2022-08-05T20:53:37.012Z,9.17
2022-08-05T20:56:09.745Z,9.17
2022-08-05T20:58:36.964Z,10.60
2022-08-05T21:01:04.657Z,8.40
2022-08-05T21:03:34.481Z,10.70
2022-08-05T21:06:01.796Z,8.70
2022-08-05T21:08:41.393Z,8.77
2022-08-05T21:11:11.892Z,9.30
2022-08-05T21:13:56.162Z,9.80
2022-08-05T21:16:29.818Z,8.33
2022-08-05T21:19:01.607Z,8.37
2022-08-05T21:21:43.702Z,14.87
2022-08-05T21:24:12.842Z,14.23
2022-08-05T21:26:39.975Z,8.97
2022-08-05T21:29:10.125Z,10.73
2022-08-05T21:31:41.123Z,12.83
2022-08-05T21:34:10.370Z,9.60
2022-08-05T21:36:37.241Z,10.30
2022-08-05T21:39:03.885Z,9.80
2022-08-05T21:41:34.237Z,10.93
2022-08-05T21:44:04.278Z,10.47
2022-08-05T21:46:34.498Z,8.27
2022-08-05T21:49:02.246Z,10.60
2022-08-05T21:52:22.797Z,7.80
2022-08-05T21:54:17.775Z,8.67
2022-08-05T21:57:15.418Z,11.00
2022-08-05T22:00:02.015Z,12.00
2022-08-05T22:02:30.163Z,10.90
2022-08-05T22:04:58.303Z,10.37
2022-08-05T22:07:39.818Z,10.00
2022-08-05T22:10:12.325Z,8.20
2022-08-05T22:12:40.204Z,9.53
2022-08-05T22:15:16.801Z,9.83
2022-08-05T22:18:03.600Z,9.30
2022-08-05T22:20:30.146Z,7.87
2022-08-05T22:23:21.462Z,9.40
2022-08-05T22:26:10.130Z,10.30
2022-08-05T22:28:38.171Z,8.53
2022-08-05T22:31:05.890Z,8.63
2022-08-05T22:33:56.727Z,10.17
2022-08-05T22:36:19.470Z,10.23
2022-08-05T22:38:51.407Z,10.07
2022-08-05T22:42:04.860Z,9.93
2022-08-05T22:44:07.850Z,10.40
2022-08-05T22:46:40.010Z,8.00
2022-08-05T22:49:12.030Z,7.90
2022-08-05T22:52:04.968Z,13.70
2022-08-05T22:54:35.632Z,10.20
2022-08-05T22:57:03.760Z,8.87
2022-08-05T22:59:46.467Z,11.33
2022-08-05T23:02:18.471Z,11.57
2022-08-05T23:04:56.716Z,12.23
2022-08-05T23:07:23.188Z,10.17
2022-08-05T23:09:58.335Z,10.80
2022-08-05T23:12:32.585Z,8.43
2022-08-05T23:15:01.451Z,7.90
2022-08-05T23:17:34.902Z,9.17
2022-08-05T23:20:10.536Z,9.67
2022-08-05T23:22:47.092Z,7.90
2022-08-05T23:25:17.460Z,8.40
2022-08-05T23:28:01.608Z,10.53
2022-08-05T23:30:29.107Z,8.40
2022-08-05T23:32:57.904Z,11.97
2022-08-05T23:35:25.441Z,8.40
2022-08-05T23:37:55.447Z,8.70
2022-08-05T23:40:27.095Z,17.87
2022-08-05T23:42:53.989Z,11.63
2022-08-05T23:45:20.885Z,8.97
2022-08-05T23:47:50.392Z,8.33
2022-08-05T23:50:20.940Z,9.13
2022-08-05T23:52:49.871Z,9.43
2022-08-05T23:55:19.152Z,7.80
2022-08-05T23:57:48.814Z,10.13
